Strona główna
METAR-TAF:

METAR-TAF

Lotnisko :

Port lotniczy Dżudda

Dżudda, Arabia Saudyjska

Szerokość geograficzna: 21-42N, Długość geograficzna: 039-11E, wysokość: 15 m

Aktualna obserwacja pogody

Raport powstał 18 minut temu, godzina 17:00 UTC
Wiatr 8 kt od północ
Temperatura 32°C
Wilgotność 59%
Ciśnienie 1006 hPa
Widzialność 10 km lub więcej
Brak chmur poniżej 1500 m i brak chmur cumulonimbus

METAR: OEJN 191700Z 35008KT CAVOK 32/23 Q1006 NOSIG

czas: 20:18 (17:18 UTC)

Prognoza

Raport powstał 6 godziny i 18 minut temu, godzina 11:00 UTC
Prognoza ważna od 19 godzina 12 UTC do 20 godzina 18 UTC
Wiatr 8 kt od zachodnio-północny zachód w porywach dochodzący do 18 kt
Widzialność 10 km lub więcej
Mało chmury na wysokości 4000 ft
Stopniowe zmiany
od 19 godzina 18 UTC do 19 godzina 20 UTC
Wiatr 6 kt od północ

TAF: OEJN 191100Z 1912/2018 30008G18KT 9999 FEW040 BECMG 1918/1920 36006KT

Obserwacja i prognoza pogody dla ponad 4000 lotnisk (raport METAR i TAF).

Dostępne stacje oznaczono żółtymi i czerwonymi punktami na mapie.

Najedź kursorem aby zobaczyć nazwę stacji.

Kliknij aby zobaczyć obserwacje i prognozy pogody.

Aby zmienić mapę: kliknij na zielony przycisk z czarnym krzyżykiem, aby powiększyć; na zielony przycisk z myślnikiem, aby pomniejszyć; na zielone strzałki, aby przejść do map sąsiednich.


METAR-TAF: